Time;durP1;ratioP1;P1;durP2;ratioP2;P2;SDS_P1;SDS_P2;PMS_P1;PMS_P2;Temp;Humidity;BMP_temperature;BMP_pressure;BME280_temperature;BME280_humidity;BME280_pressure;Samples;Min_cycle;Max_cycle;Signal;HPM_P1;HPM_P2
2023/05/09 00:00:30;;;;;;;37.50;22.77;;;15.90;99.90;;;;;;4994525;28;20315;-61
2023/05/09 00:02:57;;;;;;;41.37;23.93;;;15.90;99.90;;;;;;4994264;28;20214;-61
2023/05/09 00:05:24;;;;;;;38.07;22.57;;;15.80;99.90;;;;;;4994595;28;20201;-61
2023/05/09 00:07:51;;;;;;;41.57;22.97;;;16.00;99.90;;;;;;4994291;28;20271;-61
2023/05/09 00:10:18;;;;;;;35.47;21.40;;;16.00;99.90;;;;;;5000181;28;20319;-61
2023/05/09 00:12:46;;;;;;;34.83;21.33;;;16.10;99.90;;;;;;4996350;28;20198;-61
2023/05/09 00:15:13;;;;;;;40.27;22.90;;;16.00;99.90;;;;;;4979215;28;20204;-61
2023/05/09 00:17:40;;;;;;;33.33;20.60;;;15.70;99.90;;;;;;4996223;28;20221;-61
2023/05/09 00:20:10;;;;;;;42.57;21.47;;;15.80;99.90;;;;;;5007565;28;20655;-62
2023/05/09 00:22:39;;;;;;;38.63;21.80;;;15.90;99.90;;;;;;4990237;28;20248;-61
2023/05/09 00:25:08;;;;;;;31.37;19.67;;;16.00;99.90;;;;;;4995134;28;20253;-61
2023/05/09 00:27:35;;;;;;;35.00;19.67;;;16.00;99.90;;;;;;4991517;28;20202;-61
2023/05/09 00:30:05;;;;;;;33.47;19.80;;;15.90;99.90;;;;;;4996403;28;20575;-61
2023/05/09 00:32:32;;;;;;;33.47;19.33;;;15.80;99.90;;;;;;4992573;28;20824;-61
2023/05/09 00:34:59;;;;;;;28.67;18.00;;;15.70;99.90;;;;;;5010293;28;20296;-61
2023/05/09 00:37:29;;;;;;;29.87;19.80;;;15.70;99.90;;;;;;4994883;28;20292;-62
2023/05/09 00:39:56;;;;;;;28.00;17.83;;;15.70;99.90;;;;;;4986784;28;20548;-61
2023/05/09 00:42:23;;;;;;;31.17;17.80;;;15.90;99.90;;;;;;4999945;28;20207;-61
2023/05/09 00:44:50;;;;;;;30.97;18.73;;;15.90;99.90;;;;;;4997363;28;20200;-61
2023/05/09 00:47:16;;;;;;;31.60;19.70;;;15.70;99.90;;;;;;5002672;28;20205;-61
2023/05/09 00:49:43;;;;;;;31.37;19.10;;;15.60;99.90;;;;;;4995910;28;20593;-61
2023/05/09 00:52:10;;;;;;;24.57;16.73;;;15.60;99.90;;;;;;4992825;28;20250;-61
2023/05/09 00:54:37;;;;;;;26.57;17.83;;;15.70;99.90;;;;;;4996147;28;20290;-61
2023/05/09 00:57:04;;;;;;;30.60;18.93;;;15.70;99.90;;;;;;4978600;28;20238;-62
2023/05/09 00:59:31;;;;;;;26.13;16.70;;;15.90;99.90;;;;;;4994993;28;20258;-61
2023/05/09 01:01:58;;;;;;;28.57;16.80;;;15.90;99.90;;;;;;4994730;28;20205;-61
2023/05/09 01:04:25;;;;;;;23.93;16.73;;;15.90;99.90;;;;;;4993009;28;20202;-61
2023/05/09 01:07:15;;;;;;;24.33;16.07;;;15.80;99.90;;;;;;4996671;28;20636;-61
2023/05/09 01:10:03;;;;;;;24.07;15.20;;;15.90;99.90;;;;;;4996545;28;20214;-61
2023/05/09 01:12:44;;;;;;;23.40;16.13;;;15.90;99.90;;;;;;4993335;28;20230;-61
2023/05/09 01:15:18;;;;;;;23.60;17.23;;;15.90;99.90;;;;;;4992419;28;20196;-61
2023/05/09 01:18:00;;;;;;;27.90;17.03;;;15.90;99.90;;;;;;4994958;28;20211;-61
2023/05/09 01:20:35;;;;;;;23.77;16.67;;;15.90;99.90;;;;;;4997108;28;21130;-61
2023/05/09 01:23:27;;;;;;;23.27;15.53;;;15.70;99.90;;;;;;4997295;28;20203;-61
2023/05/09 01:25:57;;;;;;;23.20;15.43;;;15.70;99.90;;;;;;4997556;28;20207;-61
2023/05/09 01:28:59;;;;;;;21.07;15.13;;;15.70;99.90;;;;;;4998618;28;20204;-61
2023/05/09 01:31:27;;;;;;;20.67;14.40;;;15.70;99.90;;;;;;4997864;28;20236;-61
2023/05/09 01:33:58;;;;;;;20.63;14.30;;;15.70;99.90;;;;;;4997486;28;20697;-61
2023/05/09 01:36:29;;;;;;;21.13;14.47;;;15.80;99.90;;;;;;5013488;28;20210;-61
2023/05/09 01:38:57;;;;;;;21.67;15.43;;;15.80;99.90;;;;;;4997375;28;20322;-61
2023/05/09 01:41:25;;;;;;;21.70;15.23;;;15.80;99.90;;;;;;4999862;28;20783;-61
2023/05/09 01:43:56;;;;;;;21.13;14.43;;;15.90;99.90;;;;;;4995531;28;20679;-61
2023/05/09 01:46:24;;;;;;;20.13;14.00;;;15.80;99.90;;;;;;4999146;28;20215;-61
2023/05/09 01:48:52;;;;;;;22.40;13.90;;;15.70;99.90;;;;;;4998697;28;20212;-61
2023/05/09 01:51:20;;;;;;;19.17;14.10;;;15.60;99.90;;;;;;4999914;28;20319;-62
2023/05/09 01:53:48;;;;;;;20.83;13.83;;;15.80;99.90;;;;;;4999270;28;20222;-61
2023/05/09 01:56:16;;;;;;;17.37;13.03;;;15.70;99.90;;;;;;4998259;28;20213;-61
2023/05/09 01:58:47;;;;;;;21.83;14.27;;;15.70;99.90;;;;;;4998658;28;20712;-61
2023/05/09 02:01:14;;;;;;;17.73;13.93;;;15.70;99.90;;;;;;4997948;28;20473;-61
2023/05/09 02:03:44;;;;;;;19.90;13.53;;;15.70;99.90;;;;;;4998466;28;20204;-61
2023/05/09 02:06:11;;;;;;;18.63;14.17;;;15.60;99.90;;;;;;4995665;28;20232;-61
2023/05/09 02:08:40;;;;;;;20.80;14.27;;;15.60;99.90;;;;;;4998011;28;20292;-61
2023/05/09 02:11:06;;;;;;;19.20;13.73;;;15.60;99.90;;;;;;4999305;28;20300;-61
2023/05/09 02:13:33;;;;;;;20.90;13.33;;;15.70;99.90;;;;;;4995742;28;20213;-61
2023/05/09 02:16:00;;;;;;;17.33;12.17;;;15.60;99.90;;;;;;5000656;28;20206;-61
2023/05/09 02:18:28;;;;;;;19.90;13.90;;;15.70;99.90;;;;;;4997643;28;20202;-61
2023/05/09 02:20:55;;;;;;;17.23;12.20;;;15.60;99.90;;;;;;4994874;28;20208;-61
2023/05/09 02:23:22;;;;;;;19.00;13.13;;;15.40;99.90;;;;;;4996238;28;20219;-61
2023/05/09 02:25:49;;;;;;;20.20;14.47;;;15.30;99.90;;;;;;5002129;28;20264;-61
2023/05/09 02:28:18;;;;;;;22.17;14.23;;;15.10;99.90;;;;;;4998660;28;20213;-61
2023/05/09 02:30:47;;;;;;;20.37;13.20;;;15.10;99.90;;;;;;4998709;28;20219;-61
2023/05/09 02:33:15;;;;;;;24.43;13.73;;;15.00;99.90;;;;;;5007750;28;20284;-61
2023/05/09 02:35:45;;;;;;;18.20;13.80;;;15.00;99.90;;;;;;4996850;28;20212;-62
2023/05/09 02:38:13;;;;;;;20.60;13.27;;;15.00;99.90;;;;;;4995662;28;20580;-61
2023/05/09 02:40:42;;;;;;;22.80;14.20;;;15.20;99.90;;;;;;5001977;28;20432;-61
2023/05/09 02:43:09;;;;;;;19.53;13.30;;;15.20;99.90;;;;;;4997688;28;20337;-62
2023/05/09 02:45:36;;;;;;;23.40;14.23;;;15.40;99.90;;;;;;4997804;28;20237;-62
2023/05/09 02:48:04;;;;;;;19.20;12.67;;;15.40;99.90;;;;;;4995917;28;20213;-62
2023/05/09 02:50:36;;;;;;;19.30;13.40;;;15.50;99.90;;;;;;4997286;28;20238;-61
2023/05/09 02:53:05;;;;;;;24.23;13.90;;;15.50;99.90;;;;;;4997878;28;20207;-61
2023/05/09 02:55:31;;;;;;;17.70;12.13;;;15.60;99.90;;;;;;4998048;28;20203;-61
2023/05/09 02:57:58;;;;;;;15.77;11.70;;;15.60;99.90;;;;;;4996940;28;20228;-61
2023/05/09 03:00:39;;;;;;;16.50;11.83;;;15.60;99.90;;;;;;4979383;28;20550;-61
2023/05/09 03:03:06;;;;;;;16.50;12.37;;;15.50;99.90;;;;;;4992291;28;20308;-62
2023/05/09 03:05:33;;;;;;;16.90;12.07;;;15.50;99.90;;;;;;4999689;28;20663;-61
2023/05/09 03:08:00;;;;;;;18.27;12.00;;;15.60;99.90;;;;;;5007154;28;20204;-61
2023/05/09 03:10:27;;;;;;;22.60;11.63;;;15.60;99.90;;;;;;5005630;28;20208;-61
2023/05/09 03:12:54;;;;;;;22.60;12.23;;;15.60;99.90;;;;;;5001272;28;20351;-61
2023/05/09 03:15:22;;;;;;;20.13;12.00;;;15.50;99.90;;;;;;5006786;28;20254;-61
2023/05/09 03:17:49;;;;;;;17.63;12.70;;;15.40;99.90;;;;;;5006269;28;20762;-61
2023/05/09 03:20:16;;;;;;;16.13;11.70;;;15.50;99.90;;;;;;4998421;28;20216;-61
2023/05/09 03:22:43;;;;;;;19.97;13.10;;;15.50;99.90;;;;;;4996872;28;20225;-61
2023/05/09 03:25:10;;;;;;;17.63;12.50;;;15.50;99.90;;;;;;4998802;28;20206;-61
2023/05/09 03:27:37;;;;;;;17.03;11.43;;;15.50;99.90;;;;;;4999733;28;20205;-61
2023/05/09 03:30:05;;;;;;;17.47;12.37;;;15.30;99.90;;;;;;4997339;28;20201;-61
2023/05/09 03:32:32;;;;;;;17.37;11.67;;;15.30;99.90;;;;;;4978862;28;20235;-61
2023/05/09 03:34:59;;;;;;;17.63;11.53;;;15.40;99.90;;;;;;4996860;28;20239;-61
2023/05/09 03:37:26;;;;;;;14.47;11.33;;;15.30;99.90;;;;;;4988903;28;20753;-62
2023/05/09 03:39:53;;;;;;;18.73;11.97;;;15.40;99.90;;;;;;4998738;28;20710;-61
2023/05/09 03:42:21;;;;;;;19.63;12.37;;;15.40;99.90;;;;;;4983820;28;20284;-61
2023/05/09 03:44:47;;;;;;;17.80;12.07;;;15.40;99.90;;;;;;4983104;28;20240;-61
2023/05/09 03:47:14;;;;;;;17.50;12.50;;;15.40;99.90;;;;;;5001159;28;20282;-61
2023/05/09 03:49:41;;;;;;;17.13;11.90;;;15.50;99.90;;;;;;4994337;28;20211;-61
2023/05/09 03:52:08;;;;;;;17.70;12.37;;;15.40;99.90;;;;;;4980312;28;20621;-61
2023/05/09 03:54:35;;;;;;;19.73;11.93;;;15.50;99.90;;;;;;5017341;28;20207;-61
2023/05/09 03:57:02;;;;;;;28.27;13.90;;;15.50;99.90;;;;;;4997453;28;20250;-61
2023/05/09 03:59:29;;;;;;;19.40;12.50;;;15.50;99.90;;;;;;5012013;28;20696;-61
2023/05/09 04:01:56;;;;;;;16.53;11.90;;;15.40;99.90;;;;;;4980606;28;20216;-61
2023/05/09 04:04:23;;;;;;;16.87;11.17;;;15.40;99.90;;;;;;4994484;28;20218;-61
2023/05/09 04:06:50;;;;;;;14.97;11.53;;;15.40;99.90;;;;;;5000165;28;20206;-61
2023/05/09 04:09:17;;;;;;;18.53;11.33;;;15.50;99.90;;;;;;5004797;28;21102;-61
2023/05/09 04:11:44;;;;;;;16.40;11.47;;;15.40;99.90;;;;;;5001438;28;20231;-61
2023/05/09 04:14:10;;;;;;;16.83;10.77;;;15.50;99.90;;;;;;5003472;28;20259;-62
2023/05/09 04:16:37;;;;;;;16.20;11.50;;;15.50;99.90;;;;;;4988136;28;20314;-61
2023/05/09 04:19:06;;;;;;;18.53;11.60;;;15.30;99.90;;;;;;5005093;28;20627;-61
2023/05/09 04:21:32;;;;;;;18.13;11.53;;;15.40;99.90;;;;;;4994036;28;20205;-61
2023/05/09 04:24:00;;;;;;;16.20;11.23;;;15.40;99.90;;;;;;4994925;28;20261;-61
2023/05/09 04:26:27;;;;;;;17.03;11.10;;;15.40;99.90;;;;;;4978014;28;20212;-62
2023/05/09 04:28:53;;;;;;;13.70;11.03;;;15.40;99.90;;;;;;4999245;28;20283;-62
2023/05/09 04:31:21;;;;;;;13.80;9.97;;;15.30;99.90;;;;;;4997486;28;21181;-63
2023/05/09 04:33:48;;;;;;;14.13;10.77;;;15.40;99.90;;;;;;4997032;28;20328;-61
2023/05/09 04:36:15;;;;;;;16.17;10.67;;;15.40;99.90;;;;;;4994629;28;20222;-61
2023/05/09 04:38:42;;;;;;;15.43;11.43;;;15.50;99.90;;;;;;4994984;28;20353;-61
2023/05/09 04:41:09;;;;;;;15.17;11.13;;;15.50;99.90;;;;;;4994283;28;20204;-61
2023/05/09 04:43:36;;;;;;;17.20;11.03;;;15.50;99.90;;;;;;4982243;28;20231;-62
2023/05/09 04:46:03;;;;;;;15.20;10.77;;;15.50;99.90;;;;;;4994238;28;20229;-62
2023/05/09 04:48:30;;;;;;;16.93;12.27;;;15.50;99.90;;;;;;4996736;28;20212;-62
2023/05/09 04:50:57;;;;;;;14.47;12.23;;;15.50;99.90;;;;;;4993140;28;20732;-62
2023/05/09 04:53:24;;;;;;;15.53;11.63;;;15.50;99.90;;;;;;4995927;28;20705;-62
2023/05/09 04:55:52;;;;;;;15.90;10.70;;;15.60;99.90;;;;;;4996038;28;20240;-62
2023/05/09 04:58:19;;;;;;;17.80;12.27;;;15.50;99.90;;;;;;4993881;28;20563;-62
2023/05/09 05:00:46;;;;;;;17.07;11.37;;;15.50;99.90;;;;;;5005487;28;20597;-62
2023/05/09 05:03:12;;;;;;;16.37;11.33;;;15.40;99.90;;;;;;4999650;28;20216;-62
2023/05/09 05:05:40;;;;;;;17.33;11.83;;;15.50;99.90;;;;;;4976535;28;20239;-62
2023/05/09 05:08:07;;;;;;;15.90;11.83;;;15.60;99.90;;;;;;4991174;28;20314;-62
2023/05/09 05:10:34;;;;;;;17.93;11.63;;;15.60;99.90;;;;;;4996333;28;20218;-62
2023/05/09 05:13:01;;;;;;;15.73;11.33;;;15.50;99.90;;;;;;5007069;28;20685;-62
2023/05/09 05:15:28;;;;;;;15.83;11.20;;;15.60;99.90;;;;;;4996008;28;20585;-61
2023/05/09 05:17:55;;;;;;;17.27;11.83;;;15.70;99.90;;;;;;4992828;28;20195;-62
2023/05/09 05:20:22;;;;;;;17.23;11.90;;;15.60;99.90;;;;;;4633619;28;10000020;-62
2023/05/09 05:22:49;;;;;;;17.50;11.37;;;15.60;99.90;;;;;;4985154;28;20200;-62
2023/05/09 05:25:17;;;;;;;14.77;10.90;;;15.60;99.90;;;;;;4989100;28;20333;-62
2023/05/09 05:27:44;;;;;;;18.27;12.00;;;15.60;99.90;;;;;;4990961;28;20238;-62
2023/05/09 05:30:14;;;;;;;16.77;11.27;;;15.60;99.90;;;;;;4986448;28;20465;-62
2023/05/09 05:32:42;;;;;;;15.67;11.67;;;15.60;99.90;;;;;;4991065;28;20251;-62
2023/05/09 05:35:12;;;;;;;15.63;11.13;;;15.70;99.90;;;;;;5006725;28;20214;-62
2023/05/09 05:37:40;;;;;;;16.00;11.20;;;15.80;99.90;;;;;;4988725;28;20203;-62
2023/05/09 05:40:08;;;;;;;16.57;11.13;;;15.70;99.90;;;;;;4991543;28;20282;-62
2023/05/09 05:42:35;;;;;;;19.57;11.67;;;15.80;99.90;;;;;;4987378;28;20703;-62
2023/05/09 05:45:04;;;;;;;15.80;11.47;;;15.90;99.90;;;;;;4973969;28;20217;-62
2023/05/09 05:47:32;;;;;;;13.70;10.43;;;15.80;99.90;;;;;;5001444;28;20229;-62
2023/05/09 05:50:01;;;;;;;16.27;10.23;;;15.80;99.90;;;;;;4978990;28;20208;-62
2023/05/09 05:52:28;;;;;;;15.47;10.73;;;15.80;99.90;;;;;;4992857;28;20228;-63
2023/05/09 05:54:55;;;;;;;13.27;10.23;;;15.80;99.90;;;;;;4981676;28;20331;-62
2023/05/09 05:57:22;;;;;;;13.43;9.87;;;15.80;99.90;;;;;;4997391;28;20737;-62
2023/05/09 05:59:50;;;;;;;11.57;9.33;;;15.80;99.90;;;;;;4999407;28;20262;-62
2023/05/09 06:02:17;;;;;;;14.57;10.37;;;15.80;99.90;;;;;;4988900;28;20571;-62
2023/05/09 06:04:44;;;;;;;12.97;9.83;;;15.80;99.90;;;;;;4986857;28;20644;-62
2023/05/09 06:07:12;;;;;;;13.73;9.47;;;15.90;99.90;;;;;;4994182;28;20254;-62
2023/05/09 06:09:39;;;;;;;14.03;9.60;;;15.80;99.90;;;;;;4996624;28;20215;-62
2023/05/09 06:12:06;;;;;;;12.73;9.50;;;15.80;99.90;;;;;;4993528;28;20297;-62
2023/05/09 06:14:33;;;;;;;11.83;9.03;;;15.90;99.90;;;;;;5002900;28;20193;-62
2023/05/09 06:17:00;;;;;;;11.00;8.93;;;15.80;99.90;;;;;;4986332;28;20200;-62
2023/05/09 06:19:27;;;;;;;11.10;9.20;;;15.90;99.90;;;;;;5004220;28;20249;-62
2023/05/09 06:21:54;;;;;;;10.87;9.17;;;15.90;99.90;;;;;;4996100;28;20203;-62
2023/05/09 06:24:20;;;;;;;12.97;8.73;;;16.00;99.90;;;;;;5003893;28;20204;-62
2023/05/09 06:27:01;;;;;;;11.23;9.13;;;16.00;99.90;;;;;;4998282;28;20199;-62
2023/05/09 06:29:28;;;;;;;13.03;9.83;;;16.00;99.90;;;;;;5006057;28;20262;-61
2023/05/09 06:31:54;;;;;;;13.70;10.60;;;15.90;99.90;;;;;;5002902;28;20202;-62
2023/05/09 06:34:21;;;;;;;11.67;9.20;;;15.90;99.90;;;;;;5000015;28;20399;-61
2023/05/09 06:36:48;;;;;;;14.23;8.87;;;16.00;99.90;;;;;;4998118;28;20303;-60
2023/05/09 06:39:15;;;;;;;13.30;10.27;;;16.00;99.90;;;;;;5006291;28;20613;-62
2023/05/09 06:41:42;;;;;;;13.17;9.10;;;15.90;99.90;;;;;;5002570;28;20202;-61
2023/05/09 06:44:09;;;;;;;13.13;8.77;;;16.00;99.90;;;;;;5000424;28;20217;-63
2023/05/09 06:46:36;;;;;;;12.23;8.70;;;15.90;99.90;;;;;;5000392;28;20203;-61
2023/05/09 06:49:04;;;;;;;10.23;8.50;;;16.00;99.90;;;;;;5004055;28;20651;-61
2023/05/09 06:51:31;;;;;;;14.43;8.80;;;16.00;99.90;;;;;;4998020;28;20669;-61
2023/05/09 06:53:58;;;;;;;11.47;8.60;;;15.90;99.90;;;;;;5003186;28;20239;-61
2023/05/09 06:56:25;;;;;;;11.90;8.87;;;16.00;99.90;;;;;;5005806;28;20541;-61
2023/05/09 06:58:52;;;;;;;11.70;8.70;;;16.10;99.90;;;;;;5000058;28;20423;-61
2023/05/09 07:01:19;;;;;;;12.73;8.17;;;16.20;99.90;;;;;;5014564;28;20212;-61
2023/05/09 07:03:46;;;;;;;13.53;9.43;;;16.10;99.90;;;;;;5004330;28;20205;-61
2023/05/09 07:06:13;;;;;;;14.57;9.00;;;16.10;99.90;;;;;;5014654;28;20202;-61
2023/05/09 07:08:40;;;;;;;10.77;8.17;;;16.10;99.90;;;;;;5002105;28;20331;-61
2023/05/09 07:11:07;;;;;;;11.20;8.60;;;15.90;99.90;;;;;;4996280;28;20198;-61
2023/05/09 07:13:34;;;;;;;13.00;8.50;;;15.70;99.90;;;;;;4995276;28;20263;-60
2023/05/09 07:16:01;;;;;;;10.53;8.30;;;15.80;99.90;;;;;;5002695;28;20230;-61
2023/05/09 07:18:28;;;;;;;14.73;8.80;;;15.80;99.90;;;;;;5001987;28;20577;-61
2023/05/09 07:20:55;;;;;;;10.80;8.10;;;15.70;99.90;;;;;;4986741;28;20260;-61
2023/05/09 07:23:22;;;;;;;11.23;9.00;;;15.60;99.90;;;;;;5000904;28;20297;-61
2023/05/09 07:25:54;;;;;;;11.60;8.70;;;15.70;99.90;;;;;;5001079;28;20741;-61
2023/05/09 07:28:21;;;;;;;14.70;10.10;;;15.50;99.90;;;;;;5004146;28;20205;-63
2023/05/09 07:30:48;;;;;;;12.73;9.43;;;15.40;99.90;;;;;;5016822;28;20307;-61
2023/05/09 07:33:14;;;;;;;11.17;8.77;;;15.40;99.90;;;;;;4996261;28;20692;-61
2023/05/09 07:35:41;;;;;;;12.27;9.73;;;15.30;99.90;;;;;;5000656;28;20210;-61
2023/05/09 07:38:09;;;;;;;13.70;9.80;;;15.30;99.90;;;;;;4998450;28;20261;-61
2023/05/09 07:40:37;;;;;;;16.67;9.87;;;15.40;99.90;;;;;;4999302;28;20236;-61
2023/05/09 07:43:04;;;;;;;12.97;9.20;;;15.50;99.90;;;;;;4994175;28;20285;-61
2023/05/09 07:45:31;;;;;;;12.47;9.63;;;15.40;99.90;;;;;;4988197;28;20255;-61
2023/05/09 07:47:58;;;;;;;12.43;9.33;;;15.30;99.90;;;;;;4989449;28;20491;-61
2023/05/09 07:50:25;;;;;;;15.00;9.37;;;15.40;99.90;;;;;;5001290;28;20218;-61
2023/05/09 07:52:51;;;;;;;12.50;9.40;;;15.40;99.90;;;;;;4998725;28;21326;-61
2023/05/09 07:55:18;;;;;;;11.87;9.80;;;15.20;99.90;;;;;;5015355;28;20204;-61
2023/05/09 07:57:45;;;;;;;12.60;9.70;;;15.20;99.90;;;;;;4994762;28;20692;-61
2023/05/09 08:00:13;;;;;;;12.10;9.90;;;15.20;99.90;;;;;;4992994;28;20719;-61
2023/05/09 08:02:40;;;;;;;14.97;10.37;;;15.30;99.90;;;;;;5001335;28;20289;-61
2023/05/09 08:05:10;;;;;;;13.10;9.80;;;15.20;99.90;;;;;;4986966;28;20744;-61
2023/05/09 08:07:37;;;;;;;12.03;9.80;;;15.10;99.90;;;;;;5006150;28;20210;-61
2023/05/09 08:10:05;;;;;;;11.20;9.03;;;15.20;99.90;;;;;;4994868;28;20263;-61
2023/05/09 08:12:32;;;;;;;11.37;9.03;;;15.10;99.90;;;;;;5004020;28;20230;-61
2023/05/09 08:14:59;;;;;;;9.87;8.40;;;15.30;99.90;;;;;;4996931;28;20203;-61
2023/05/09 08:17:26;;;;;;;9.33;8.30;;;15.20;99.90;;;;;;4995503;28;20208;-61
2023/05/09 08:19:53;;;;;;;14.60;8.53;;;15.00;99.90;;;;;;5001248;28;20213;-61
2023/05/09 08:22:20;;;;;;;10.73;8.40;;;15.30;99.90;;;;;;5013433;28;20290;-61
2023/05/09 08:24:47;;;;;;;10.40;8.13;;;15.10;99.90;;;;;;4999358;28;20566;-63
2023/05/09 08:27:14;;;;;;;10.17;7.90;;;15.20;99.90;;;;;;5003311;28;20830;-61
2023/05/09 08:29:42;;;;;;;10.40;7.97;;;15.20;99.90;;;;;;5000129;28;20712;-61
2023/05/09 08:32:09;;;;;;;9.37;7.40;;;15.30;99.90;;;;;;5002598;28;20328;-61
2023/05/09 08:34:36;;;;;;;10.00;7.90;;;15.20;99.90;;;;;;5001445;28;20260;-61
2023/05/09 08:37:03;;;;;;;8.40;7.17;;;15.20;99.90;;;;;;4989372;28;20198;-61
2023/05/09 08:39:30;;;;;;;9.90;7.20;;;15.40;99.90;;;;;;4999917;28;20275;-61
2023/05/09 08:41:58;;;;;;;9.63;7.43;;;15.30;99.90;;;;;;5003966;28;20942;-61
2023/05/09 08:44:27;;;;;;;10.97;7.70;;;15.30;99.90;;;;;;5004196;28;20238;-61
2023/05/09 08:46:58;;;;;;;10.00;7.77;;;15.40;99.90;;;;;;5015118;28;20677;-61
2023/05/09 08:49:25;;;;;;;8.53;7.63;;;15.30;99.90;;;;;;4999888;28;20228;-61
2023/05/09 08:51:53;;;;;;;10.70;7.80;;;15.40;99.90;;;;;;4998807;28;20612;-61
2023/05/09 08:54:21;;;;;;;10.53;8.27;;;15.30;99.90;;;;;;4996046;28;20222;-61
2023/05/09 08:56:49;;;;;;;11.73;8.10;;;15.40;99.90;;;;;;5001318;28;20205;-61
2023/05/09 08:59:18;;;;;;;9.60;8.43;;;15.40;99.90;;;;;;5006828;28;20249;-61
2023/05/09 09:01:45;;;;;;;9.23;7.33;;;15.30;99.90;;;;;;4998246;28;20291;-61
2023/05/09 09:04:12;;;;;;;10.77;8.20;;;15.40;99.90;;;;;;4998891;28;20217;-61
2023/05/09 09:06:39;;;;;;;9.73;8.07;;;15.40;99.90;;;;;;4999868;28;20199;-61
2023/05/09 09:09:10;;;;;;;8.67;7.43;;;15.20;99.90;;;;;;4998763;28;20662;-61
2023/05/09 09:11:39;;;;;;;8.13;7.30;;;15.20;99.90;;;;;;5004237;28;20202;-63
2023/05/09 09:14:21;;;;;;;8.27;7.03;;;15.20;99.90;;;;;;5014203;28;20213;-62
2023/05/09 09:16:50;;;;;;;10.33;7.90;;;15.20;99.90;;;;;;5001370;28;20321;-62
2023/05/09 09:19:17;;;;;;;10.47;6.63;;;15.10;99.90;;;;;;5021432;28;20211;-61
2023/05/09 09:21:49;;;;;;;8.87;7.77;;;15.10;99.90;;;;;;4995943;28;20725;-62
2023/05/09 09:24:21;;;;;;;8.97;7.03;;;15.20;99.90;;;;;;4998842;28;20213;-60
2023/05/09 09:26:50;;;;;;;10.23;7.13;;;15.40;99.90;;;;;;4999179;28;20210;-59
2023/05/09 09:29:19;;;;;;;8.23;7.37;;;15.50;99.90;;;;;;5002428;28;20204;-60
2023/05/09 09:31:50;;;;;;;8.90;7.60;;;15.60;99.90;;;;;;4996608;28;20651;-59
2023/05/09 09:34:22;;;;;;;20.10;9.87;;;15.40;99.90;;;;;;5003446;28;21960;-59
2023/05/09 09:36:49;;;;;;;9.40;7.73;;;15.40;99.90;;;;;;4998109;28;20294;-60
2023/05/09 09:39:16;;;;;;;9.03;7.57;;;15.50;99.90;;;;;;5016511;28;20236;-59
2023/05/09 09:41:46;;;;;;;9.03;7.73;;;15.50;99.90;;;;;;4999192;28;20662;-60
2023/05/09 09:44:15;;;;;;;8.70;7.27;;;15.60;99.90;;;;;;5003567;28;20298;-60
2023/05/09 09:46:54;;;;;;;12.00;7.37;;;15.60;99.90;;;;;;5001085;28;20547;-60
2023/05/09 09:49:23;;;;;;;8.40;7.47;;;15.70;99.90;;;;;;5023314;28;20585;-60
2023/05/09 09:51:55;;;;;;;10.30;7.53;;;15.80;99.90;;;;;;5002471;28;20213;-60
2023/05/09 09:54:26;;;;;;;11.87;7.70;;;15.70;99.90;;;;;;4994929;28;20596;-59
2023/05/09 09:56:55;;;;;;;9.27;7.53;;;15.70;99.90;;;;;;5015068;28;20190;-60
2023/05/09 09:59:26;;;;;;;9.07;8.17;;;15.70;99.90;;;;;;5012337;28;20205;-60
2023/05/09 10:01:55;;;;;;;8.37;7.10;;;15.80;99.90;;;;;;4996811;28;20214;-60
2023/05/09 10:04:23;;;;;;;9.20;7.10;;;15.70;99.90;;;;;;5004665;28;20219;-59
2023/05/09 10:06:55;;;;;;;9.03;7.07;;;15.80;99.90;;;;;;5004836;28;20673;-59
2023/05/09 10:09:23;;;;;;;8.27;7.10;;;15.80;99.90;;;;;;5006221;28;20284;-59
2023/05/09 10:11:52;;;;;;;9.37;6.83;;;15.70;99.90;;;;;;5005909;28;20759;-59
2023/05/09 10:14:21;;;;;;;9.63;6.60;;;15.60;99.90;;;;;;5003767;28;20214;-59
2023/05/09 10:16:48;;;;;;;10.83;7.73;;;15.60;99.90;;;;;;5002058;28;20196;-60
2023/05/09 10:19:20;;;;;;;7.70;6.90;;;15.50;99.90;;;;;;5005030;28;20228;-60
2023/05/09 10:21:55;;;;;;;9.10;6.90;;;15.50;99.90;;;;;;5006218;28;20206;-60
2023/05/09 10:24:43;;;;;;;9.27;7.07;;;15.60;99.90;;;;;;5001316;28;20661;-59
2023/05/09 10:27:11;;;;;;;8.53;7.00;;;15.60;99.90;;;;;;5001670;28;20204;-62
2023/05/09 10:29:50;;;;;;;11.17;8.07;;;15.50;99.90;;;;;;5006831;28;20612;-59
2023/05/09 10:32:26;;;;;;;9.87;7.07;;;15.70;99.90;;;;;;4999565;28;20545;-60
2023/05/09 10:35:00;;;;;;;9.67;8.07;;;15.80;99.90;;;;;;4981126;28;20239;-59
2023/05/09 10:37:27;;;;;;;9.63;7.37;;;15.80;99.90;;;;;;4991731;28;20198;-60
2023/05/09 10:39:55;;;;;;;11.80;8.40;;;15.80;99.90;;;;;;4993129;28;20229;-60
2023/05/09 10:42:27;;;;;;;9.23;7.83;;;15.80;99.90;;;;;;5010901;28;20283;-59
2023/05/09 10:44:55;;;;;;;11.97;7.87;;;15.70;99.90;;;;;;4989774;28;20269;-60
2023/05/09 10:47:25;;;;;;;8.73;7.03;;;15.70;99.90;;;;;;4989332;28;20197;-59
2023/05/09 10:49:53;;;;;;;9.83;7.80;;;15.60;99.90;;;;;;4988618;28;20912;-59
2023/05/09 10:52:23;;;;;;;9.73;7.37;;;15.70;99.90;;;;;;4987622;28;20218;-59
2023/05/09 10:55:00;;;;;;;9.13;8.00;;;15.70;99.90;;;;;;4989449;28;20230;-60
2023/05/09 10:57:29;;;;;;;9.90;7.33;;;15.80;99.90;;;;;;4991603;28;20266;-59
2023/05/09 10:59:57;;;;;;;8.30;7.30;;;15.70;99.90;;;;;;4984477;28;20199;-61
2023/05/09 11:02:28;;;;;;;9.50;7.97;;;15.70;99.90;;;;;;4992783;28;20633;-59
2023/05/09 11:05:17;;;;;;;10.50;7.43;;;15.70;99.90;;;;;;4984896;28;20195;-60
2023/05/09 11:07:44;;;;;;;9.07;6.90;;;15.70;99.90;;;;;;4990822;28;20654;-60
2023/05/09 11:10:17;;;;;;;8.30;7.10;;;15.60;99.90;;;;;;4996543;28;20207;-60
2023/05/09 11:12:56;;;;;;;9.07;7.00;;;15.70;99.90;;;;;;4990098;28;20198;-59
2023/05/09 11:15:25;;;;;;;7.40;6.70;;;15.60;99.90;;;;;;4979050;28;22213;-60
2023/05/09 11:18:06;;;;;;;7.20;6.50;;;15.50;99.90;;;;;;4989455;28;20676;-59
2023/05/09 11:20:35;;;;;;;7.70;7.00;;;15.50;99.90;;;;;;4991949;28;20675;-60
2023/05/09 11:23:07;;;;;;;6.90;6.20;;;15.60;99.90;;;;;;4994745;28;20698;-60
2023/05/09 11:25:34;;;;;;;6.80;6.17;;;15.40;99.90;;;;;;4987942;28;20211;-60
2023/05/09 11:28:02;;;;;;;6.43;5.60;;;15.30;99.90;;;;;;4977006;28;20956;-60
2023/05/09 11:30:41;;;;;;;6.93;6.33;;;15.30;99.90;;;;;;4985597;28;20282;-60
2023/05/09 11:33:27;;;;;;;6.97;5.87;;;15.40;99.90;;;;;;4990234;28;20225;-61
2023/05/09 11:36:17;;;;;;;6.63;6.03;;;15.50;99.90;;;;;;4981603;28;20644;-61
2023/05/09 11:38:47;;;;;;;8.47;5.97;;;15.30;99.90;;;;;;4986168;28;20251;-61
2023/05/09 11:41:15;;;;;;;6.57;5.17;;;15.40;99.90;;;;;;4992343;28;21265;-61
2023/05/09 11:43:45;;;;;;;6.80;5.80;;;15.40;99.90;;;;;;4988506;28;20252;-61
2023/05/09 11:46:12;;;;;;;5.83;5.20;;;15.30;99.90;;;;;;5007097;28;20252;-61
2023/05/09 11:48:41;;;;;;;6.83;5.47;;;15.30;99.90;;;;;;4983339;28;20287;-62
2023/05/09 11:51:16;;;;;;;8.03;5.47;;;15.40;99.90;;;;;;4990567;28;20215;-61
2023/05/09 11:53:45;;;;;;;5.27;4.77;;;15.30;99.90;;;;;;4992267;28;20272;-61
2023/05/09 11:56:13;;;;;;;6.23;5.20;;;15.20;99.90;;;;;;5009155;28;20208;-61
2023/05/09 11:58:41;;;;;;;6.73;5.57;;;15.30;99.90;;;;;;4986393;28;21277;-61
2023/05/09 12:01:09;;;;;;;5.80;5.07;;;15.30;99.90;;;;;;4992371;28;20213;-61
2023/05/09 12:03:43;;;;;;;6.07;5.40;;;15.30;99.90;;;;;;4997767;28;20222;-61
2023/05/09 12:06:18;;;;;;;6.27;5.30;;;15.20;99.90;;;;;;4986067;28;20278;-61
2023/05/09 12:08:45;;;;;;;5.07;4.47;;;15.30;99.90;;;;;;4987683;28;20278;-61
2023/05/09 12:11:13;;;;;;;8.47;5.70;;;15.30;99.90;;;;;;4984110;28;20202;-61
2023/05/09 12:13:48;;;;;;;5.50;5.00;;;15.40;99.90;;;;;;4991792;28;20240;-61
2023/05/09 12:16:16;;;;;;;5.40;4.90;;;15.60;99.90;;;;;;4991174;28;20707;-61
2023/05/09 12:18:49;;;;;;;5.10;4.60;;;15.40;99.90;;;;;;4995561;28;20731;-61
2023/05/09 12:21:16;;;;;;;7.03;5.33;;;15.40;99.90;;;;;;4996268;28;20394;-61
2023/05/09 12:23:45;;;;;;;6.17;4.63;;;15.30;99.90;;;;;;4988449;28;20221;-61
2023/05/09 12:26:15;;;;;;;6.07;4.83;;;15.30;99.90;;;;;;4982014;28;20221;-61
2023/05/09 12:28:42;;;;;;;5.57;4.60;;;15.40;99.90;;;;;;4995005;28;20525;-61
2023/05/09 12:31:10;;;;;;;5.60;4.83;;;15.30;99.90;;;;;;4994432;28;21019;-62
2023/05/09 12:33:38;;;;;;;5.03;4.53;;;15.40;99.90;;;;;;4994550;28;20230;-61
2023/05/09 12:36:11;;;;;;;4.60;4.20;;;15.40;99.90;;;;;;4990852;28;20202;-61
2023/05/09 12:38:39;;;;;;;4.70;4.20;;;15.10;99.90;;;;;;4998624;28;20233;-61
2023/05/09 12:41:08;;;;;;;5.63;4.37;;;15.10;99.90;;;;;;4998300;28;20668;-61
2023/05/09 12:43:55;;;;;;;6.70;4.83;;;15.00;99.90;;;;;;4990284;28;20287;-61